Adak, AK

4:42 AM HADT on September 21, 2014 (GMT -0900)
Adak | Change Station
CLOSE
Current Station
Airport
Location: Adak,
Elevation: 13 ft
Nearby Weather Stations

Elev 13 ft 51.88 °N, 176.65 °W | Updated 6 minutes ago

Mostly Cloudy
Mostly Cloudy
52 °F
Feels Like 52 °F
N
7
Wind Variable Wind from South

Today
High -- | Low -- °F
--% Chance of Precip.
Yesterday
High -- | Low -- °F
Precip. -- in
8:31 AM 8:46 PM
Waning Crescent, 7% visible
Pressure 29.67 in
Visibility 9.0 miles
Clouds Few 900 ft
Scattered Clouds 1500 ft
Mostly Cloudy 2100 ft
Dew Point 46 °F
Humidity 82%
Rainfall 0.02 in
Snow Depth 0 in , 0 in , 0 in
UV 0 out of 12
Pollen Not available.
Air Quality Not available.
Flu Activity Not available.
METAR PADK 211336Z AUTO 17006KT 9SM FEW009 SCT015 BKN021 11/08 A2967 RMK AO1 P0001

More Conditions Fewer Conditions

Pressure 29.67 in
Visibility 9.0 miles
Clouds Few 900 ft
Scattered Clouds 1500 ft
Mostly Cloudy 2100 ft
Dew Point 46 °F
Humidity 82%
Rainfall 0.02 in
Snow Depth 0 in , 0 in , 0 in
UV 0 out of 12
Pollen Not available.
Air Quality Not available.
Flu Activity Not available.
METAR PADK 211336Z AUTO 17006KT 9SM FEW009 SCT015 BKN021 11/08 A2967 RMK AO1 P0001

More Conditions Fewer Conditions

10-Day Weather Forecast

Almanac

Astronomy

Sep. 21, 2014 Rise Set
Actual Time 8:31 AM HADT 8:46 PM HADT
Civil Twilight 7:57 AM HADT 9:20 PM HADT
Nautical Twilight 7:17 AM HADT 9:59 PM HADT
Astronomical Twilight 6:36 AM HADT 10:41 PM HADT
Moon 6:06 AM HADT 7:39 PM HADT
Length of Visible Light 13h 22m
Length of Day
12h 15m
Tomorrow will be 3m 58s shorter.
Waning Crescent, 7% of the Moon is Illuminated
Today
Waning Crescent
Sep 24
New
Oct 1
First Quarter
Oct 8
Full
Oct 15
Last Quarter

Today's Extremes

State Highs State Lows

Community

WunderPhotos

Upload Photos

1,755,141 photos uploaded!

Nearby

Snow Depth

Station Depth Elevation
Grouse Creek Divide 0 in 700 ft
Grandview 0 in 1100 ft
Long Lake 0 in 820 ft
Munson Ridge 1 in 3100 ft
Imnaviat Creek 18 in 3050 ft

Earthquake Activity

City Distance Mag. Time & Date
No recent earthquake activity has been reported nearby.
Minimum magnitude displayed is 2.5.

Coastal Water Temperatures

Place Temperature
No Stations Reporting

Nearby Weather Stations